Time;durP1;ratioP1;P1;durP2;ratioP2;P2;SDS_P1;SDS_P2;PMS_P1;PMS_P2;Temp;Humidity;BMP_temperature;BMP_pressure;BME280_temperature;BME280_humidity;BME280_pressure;Samples;Min_cycle;Max_cycle;Signal;HPM_P1;HPM_P2
2023/06/27 00:00:13;;;;;;;0.90;0.90;;;;;;;22.93;100.00;99918.78;5072852;28;20203;-72
2023/06/27 00:02:40;;;;;;;1.00;1.00;;;;;;;22.56;100.00;99913.09;5073189;28;20222;-74
2023/06/27 00:05:08;;;;;;;1.08;1.08;;;;;;;22.12;100.00;99831.03;5073125;28;20195;-73
2023/06/27 00:07:35;;;;;;;1.13;1.13;;;;;;;22.45;100.00;99909.97;5072643;28;20287;-73
2023/06/27 00:10:03;;;;;;;1.20;1.20;;;;;;;22.32;100.00;99879.66;5073136;28;20205;-73
2023/06/27 00:12:31;;;;;;;1.40;1.40;;;;;;;22.42;100.00;99910.97;5072602;28;20211;-73
2023/06/27 00:14:59;;;;;;;1.52;1.42;;;;;;;22.46;100.00;99902.00;5072682;28;20301;-73
2023/06/27 00:17:25;;;;;;;1.10;1.10;;;;;;;22.44;100.00;99908.28;5071930;28;20207;-73
2023/06/27 00:19:57;;;;;;;1.25;1.25;;;;;;;22.34;100.00;99901.56;5072423;28;20203;-74
2023/06/27 00:22:26;;;;;;;2.13;2.03;;;;;;;22.23;100.00;99886.13;5072819;28;20198;-74
2023/06/27 00:24:53;;;;;;;1.52;1.42;;;;;;;22.36;100.00;99897.97;5072013;28;20673;-73
2023/06/27 00:27:20;;;;;;;1.35;1.35;;;;;;;22.38;100.00;99900.56;5072310;28;20206;-74
2023/06/27 00:29:47;;;;;;;1.40;1.40;;;;;;;22.39;100.00;99910.22;5072416;28;20210;-73
2023/06/27 00:32:15;;;;;;;1.27;1.27;;;;;;;22.48;100.00;99902.81;5071984;28;20680;-74
2023/06/27 00:34:42;;;;;;;1.30;1.30;;;;;;;22.42;100.00;99902.19;5071654;28;20640;-74
2023/06/27 00:37:08;;;;;;;1.60;1.50;;;;;;;22.41;100.00;99887.22;5072297;28;20207;-74
2023/06/27 00:39:35;;;;;;;1.60;1.50;;;;;;;22.46;100.00;99917.00;5071578;28;20195;-73
2023/06/27 00:42:02;;;;;;;1.23;1.23;;;;;;;22.46;100.00;99922.28;5072068;28;20638;-73
2023/06/27 00:44:29;;;;;;;1.40;1.40;;;;;;;22.52;100.00;99922.06;5071693;28;20282;-74
2023/06/27 00:46:55;;;;;;;1.30;1.30;;;;;;;22.56;100.00;99921.91;5072104;28;20191;-74
2023/06/27 00:49:24;;;;;;;1.67;1.60;;;;;;;22.62;100.00;99915.50;5071529;28;20207;-74
2023/06/27 00:51:53;;;;;;;1.50;1.40;;;;;;;22.59;100.00;99908.56;5071842;28;20281;-74
2023/06/27 00:54:19;;;;;;;1.40;1.40;;;;;;;22.49;100.00;99901.91;5071458;28;20221;-75
2023/06/27 00:56:48;;;;;;;1.63;1.52;;;;;;;22.47;100.00;99908.16;5072090;28;20295;-74
2023/06/27 00:59:15;;;;;;;1.40;1.30;;;;;;;22.56;100.00;99899.88;5071729;28;20332;-74
2023/06/27 01:01:43;;;;;;;2.03;1.63;;;;;;;22.48;100.00;99899.31;5035112;28;20701;-74
2023/06/27 01:04:09;;;;;;;1.70;1.60;;;;;;;22.45;100.00;99905.56;5071676;28;20223;-74
2023/06/27 01:06:45;;;;;;;1.70;1.60;;;;;;;22.52;100.00;99891.22;5071752;28;20625;-74
2023/06/27 01:09:18;;;;;;;1.60;1.50;;;;;;;22.42;100.00;99892.47;5071636;28;20233;-74
2023/06/27 01:11:48;;;;;;;1.50;1.40;;;;;;;22.39;100.00;99895.22;5036357;28;20617;-73
2023/06/27 01:14:19;;;;;;;1.42;1.40;;;;;;;22.25;100.00;99897.50;5071439;28;20230;-73
2023/06/27 01:16:47;;;;;;;1.98;1.88;;;;;;;22.19;100.00;99902.97;5071533;28;20198;-74
2023/06/27 01:19:17;;;;;;;1.40;1.40;;;;;;;22.08;100.00;99898.06;5071487;28;20202;-74
2023/06/27 01:21:49;;;;;;;1.67;1.58;;;;;;;22.10;100.00;99893.63;5071164;28;20203;-74
2023/06/27 01:24:18;;;;;;;1.50;1.40;;;;;;;21.87;100.00;99880.31;5070952;28;20206;-73
2023/06/27 01:26:45;;;;;;;1.52;1.42;;;;;;;21.87;100.00;99908.50;5070887;28;20203;-73
2023/06/27 01:29:13;;;;;;;1.65;1.55;;;;;;;21.86;100.00;99910.28;5070442;28;20203;-74
2023/06/27 01:31:45;;;;;;;1.60;1.50;;;;;;;21.89;100.00;99904.88;5071329;28;20239;-73
2023/06/27 01:34:19;;;;;;;1.17;1.17;;;;;;;21.99;100.00;99906.31;5070831;28;20697;-73
2023/06/27 01:36:51;;;;;;;1.40;1.40;;;;;;;21.98;100.00;99901.94;5071285;28;20207;-73
2023/06/27 01:39:23;;;;;;;1.40;1.40;;;;;;;21.96;100.00;99895.88;5070951;28;20722;-74
2023/06/27 01:41:55;;;;;;;1.50;1.40;;;;;;;21.98;100.00;99907.22;5071393;28;20256;-74
2023/06/27 01:44:25;;;;;;;1.27;1.27;;;;;;;21.91;100.00;99891.66;5071155;28;20211;-74
2023/06/27 01:46:53;;;;;;;1.60;1.50;;;;;;;21.89;100.00;99904.88;5070491;28;20308;-74
2023/06/27 01:49:19;;;;;;;1.30;1.30;;;;;;;21.81;100.00;99896.34;5071164;28;20642;-73
2023/06/27 01:51:46;;;;;;;1.30;1.30;;;;;;;21.44;100.00;99819.34;5052264;28;20203;-74
2023/06/27 01:54:13;;;;;;;1.30;1.30;;;;;;;21.94;100.00;99896.84;5071028;28;20222;-74
2023/06/27 01:56:41;;;;;;;1.27;1.27;;;;;;;22.03;100.00;99892.09;5070734;28;20214;-74
2023/06/27 01:59:08;;;;;;;1.20;1.20;;;;;;;21.94;100.00;99891.56;5070370;28;20191;-74
2023/06/27 02:01:35;;;;;;;1.30;1.30;;;;;;;21.87;100.00;99890.84;5070001;28;20195;-73
2023/06/27 02:04:03;;;;;;;1.27;1.27;;;;;;;21.86;100.00;99891.78;5070171;28;20621;-73
2023/06/27 02:06:30;;;;;;;1.38;1.38;;;;;;;21.83;100.00;99883.97;5070501;28;20600;-74
2023/06/27 02:08:56;;;;;;;1.48;1.38;;;;;;;21.82;100.00;99895.44;5070162;28;20600;-74
2023/06/27 02:11:23;;;;;;;1.80;1.70;;;;;;;21.65;100.00;99874.88;5070881;28;20206;-74
2023/06/27 02:13:51;;;;;;;1.30;1.30;;;;;;;21.65;100.00;99852.94;5070591;28;20234;-74
2023/06/27 02:16:18;;;;;;;1.40;1.38;;;;;;;21.88;100.00;99913.72;5070824;28;20688;-73
2023/06/27 02:18:45;;;;;;;1.40;1.40;;;;;;;21.86;100.00;99912.06;5070274;28;20206;-73
2023/06/27 02:21:12;;;;;;;1.30;1.30;;;;;;;21.88;100.00;99910.22;5070391;28;20329;-74
2023/06/27 02:23:39;;;;;;;1.30;1.30;;;;;;;21.86;100.00;99909.41;5070379;28;20222;-74
2023/06/27 02:26:07;;;;;;;1.27;1.27;;;;;;;21.82;100.00;99908.66;5070547;28;20207;-74
2023/06/27 02:28:34;;;;;;;1.33;1.33;;;;;;;21.76;100.00;99914.13;5070196;28;20198;-74
2023/06/27 02:31:02;;;;;;;1.17;1.17;;;;;;;21.92;100.00;99915.38;5070272;28;20604;-73
2023/06/27 02:33:29;;;;;;;1.30;1.30;;;;;;;21.83;100.00;99907.72;5069348;28;20210;-74
2023/06/27 02:35:55;;;;;;;1.40;1.40;;;;;;;21.81;100.00;99895.50;5070386;28;20210;-74
2023/06/27 02:38:22;;;;;;;1.20;1.20;;;;;;;21.96;100.00;99917.00;5070456;28;20210;-74
2023/06/27 02:40:49;;;;;;;1.10;1.10;;;;;;;22.02;100.00;99914.13;5070845;28;20194;-74
2023/06/27 02:43:16;;;;;;;1.13;1.13;;;;;;;22.08;100.00;99908.63;5072917;28;20218;-73
2023/06/27 02:45:42;;;;;;;1.25;1.25;;;;;;;22.13;100.00;99901.44;5072670;28;20214;-74
2023/06/27 02:48:11;;;;;;;1.20;1.20;;;;;;;22.23;100.00;99913.41;5074061;28;20206;-74
2023/06/27 02:50:37;;;;;;;1.10;1.10;;;;;;;22.06;100.00;99894.63;5074077;28;20259;-75
2023/06/27 02:53:04;;;;;;;1.20;1.20;;;;;;;22.04;100.00;99888.56;5074488;28;20619;-74
2023/06/27 02:55:31;;;;;;;1.25;1.25;;;;;;;22.27;100.00;99916.78;5071548;28;20697;-74
2023/06/27 02:57:58;;;;;;;1.10;1.10;;;;;;;22.29;100.00;99912.34;5074147;28;20574;-73
2023/06/27 03:00:25;;;;;;;1.20;1.20;;;;;;;22.32;100.00;99908.72;5024116;28;20195;-75
2023/06/27 03:02:51;;;;;;;1.20;1.20;;;;;;;22.27;100.00;99889.50;5054607;28;20257;-73
2023/06/27 03:05:20;;;;;;;1.10;1.10;;;;;;;22.47;100.00;99909.03;5052129;28;20207;-75
2023/06/27 03:07:46;;;;;;;1.08;1.08;;;;;;;22.48;100.00;99904.59;5067259;28;20687;-73
2023/06/27 03:10:13;;;;;;;1.20;1.20;;;;;;;22.53;100.00;99914.09;5074048;28;20705;-73
2023/06/27 03:12:40;;;;;;;1.00;1.00;;;;;;;22.69;100.00;99909.13;5074109;28;20748;-73
2023/06/27 03:15:08;;;;;;;1.17;1.17;;;;;;;23.13;100.00;99920.66;5073917;28;20717;-73
2023/06/27 03:17:35;;;;;;;1.30;1.30;;;;;;;23.54;100.00;99913.78;5074184;28;20206;-73
2023/06/27 03:20:01;;;;;;;1.13;1.13;;;;;;;24.10;100.00;99930.81;5073620;28;20202;-74
2023/06/27 03:22:29;;;;;;;1.17;1.17;;;;;;;24.74;100.00;99930.66;5073780;28;20202;-74
2023/06/27 03:24:56;;;;;;;1.13;1.13;;;;;;;24.92;100.00;99945.78;5055137;28;20211;-75
2023/06/27 03:27:23;;;;;;;1.10;1.10;;;;;;;25.31;100.00;99936.88;5038555;28;20199;-75
2023/06/27 03:29:50;;;;;;;1.17;1.17;;;;;;;25.67;100.00;99940.44;5072919;28;20645;-75
2023/06/27 03:32:17;;;;;;;1.15;1.15;;;;;;;25.94;100.00;99928.44;5073075;28;20766;-75
2023/06/27 03:34:44;;;;;;;1.20;1.20;;;;;;;26.55;100.00;99949.25;5033953;28;20219;-76
2023/06/27 03:37:11;;;;;;;1.00;1.00;;;;;;;27.25;98.32;99953.47;5073146;28;20198;-75
2023/06/27 03:39:39;;;;;;;1.20;1.20;;;;;;;27.78;91.65;99950.47;5073198;28;20638;-76
2023/06/27 03:42:07;;;;;;;1.25;1.25;;;;;;;27.61;90.98;99962.09;5072489;28;20230;-73
2023/06/27 03:44:34;;;;;;;1.10;1.10;;;;;;;27.99;88.15;99957.22;5069796;28;20229;-73
2023/06/27 03:47:00;;;;;;;1.10;1.10;;;;;;;27.88;89.33;99960.50;5071945;28;20198;-73
2023/06/27 03:49:27;;;;;;;1.00;1.00;;;;;;;28.51;85.91;99960.31;5037579;28;20203;-73
2023/06/27 03:51:54;;;;;;;1.10;1.10;;;;;;;28.91;84.13;99969.44;5072197;28;20329;-72
2023/06/27 03:54:21;;;;;;;1.10;1.10;;;;;;;29.13;81.61;99966.28;5072587;28;20599;-72
2023/06/27 03:56:49;;;;;;;1.10;1.10;;;;;;;29.69;80.78;99962.66;5072721;28;20622;-73
2023/06/27 03:59:16;;;;;;;1.08;1.08;;;;;;;29.87;74.16;99967.69;5036955;28;20206;-73
2023/06/27 04:01:43;;;;;;;1.13;1.13;;;;;;;29.77;74.25;99966.56;5036897;28;20195;-74
2023/06/27 04:04:10;;;;;;;1.20;1.20;;;;;;;29.73;72.46;99973.06;5072470;28;20198;-74
2023/06/27 04:06:36;;;;;;;1.00;1.00;;;;;;;29.92;72.91;99970.94;5071988;28;20223;-74
2023/06/27 04:09:04;;;;;;;1.10;1.10;;;;;;;29.95;73.36;99970.72;5071742;28;20202;-73
2023/06/27 04:11:31;;;;;;;1.00;1.00;;;;;;;30.13;73.62;99962.44;5069923;28;20215;-74
2023/06/27 04:14:00;;;;;;;1.10;1.10;;;;;;;30.55;75.32;99980.06;5071605;28;20665;-74
2023/06/27 04:16:27;;;;;;;1.10;1.10;;;;;;;30.76;74.43;99984.81;5036666;28;20286;-73
2023/06/27 04:18:54;;;;;;;1.10;1.10;;;;;;;31.06;73.02;99987.19;5071184;28;20230;-73
2023/06/27 04:21:21;;;;;;;1.00;1.00;;;;;;;31.48;69.32;99981.41;5071949;28;20190;-74
2023/06/27 04:23:48;;;;;;;1.00;1.00;;;;;;;31.67;67.40;99982.78;5061656;28;20652;-73
2023/06/27 04:26:17;;;;;;;1.13;1.13;;;;;;;32.21;64.91;99986.75;5033892;28;20202;-74
2023/06/27 04:28:44;;;;;;;1.20;1.20;;;;;;;32.41;63.04;99999.50;5058778;28;20198;-74
2023/06/27 04:31:12;;;;;;;1.10;1.10;;;;;;;32.64;61.16;99992.34;5071669;28;20316;-73
2023/06/27 04:33:39;;;;;;;1.08;1.08;;;;;;;32.28;61.01;99957.59;5070829;28;20205;-75
2023/06/27 04:36:06;;;;;;;1.08;1.08;;;;;;;32.83;60.94;100002.53;5070704;28;20225;-72
2023/06/27 04:38:37;;;;;;;0.90;0.90;;;;;;;32.66;59.72;99985.06;5071178;28;20213;-72
2023/06/27 04:41:05;;;;;;;1.00;1.00;;;;;;;32.59;60.70;99997.25;5057262;28;20206;-72
2023/06/27 04:43:33;;;;;;;1.00;1.00;;;;;;;32.65;59.09;99999.44;5070791;28;20673;-69
2023/06/27 04:45:59;;;;;;;1.00;1.00;;;;;;;33.11;58.47;100012.00;5069992;28;20285;-71
2023/06/27 04:48:28;;;;;;;1.00;1.00;;;;;;;33.30;57.72;100010.41;5056911;28;20198;-72
2023/06/27 04:50:55;;;;;;;1.10;1.10;;;;;;;32.89;57.15;100012.81;5035967;28;20201;-72
2023/06/27 04:53:22;;;;;;;1.20;1.20;;;;;;;32.77;58.54;100017.31;5070581;28;20205;-72
2023/06/27 04:55:49;;;;;;;1.25;1.25;;;;;;;33.07;58.06;100016.72;5071136;28;20225;-73
2023/06/27 04:58:16;;;;;;;1.00;1.00;;;;;;;33.34;56.32;100016.41;5056630;28;20199;-72
2023/06/27 05:00:44;;;;;;;0.88;0.88;;;;;;;33.71;55.58;100017.00;5032287;28;20215;-73
2023/06/27 05:03:11;;;;;;;1.08;1.08;;;;;;;33.82;55.00;100008.88;5067435;28;20202;-72
2023/06/27 05:05:39;;;;;;;0.90;0.90;;;;;;;34.21;54.07;100019.06;5070926;28;20283;-72
2023/06/27 05:08:06;;;;;;;1.10;1.10;;;;;;;34.84;52.26;100020.84;5070589;28;20255;-72
2023/06/27 05:10:33;;;;;;;0.95;0.95;;;;;;;34.51;51.61;100018.31;5070284;28;20330;-72
2023/06/27 05:13:00;;;;;;;1.08;1.08;;;;;;;34.10;52.57;100029.00;5070144;28;20202;-72
2023/06/27 05:15:27;;;;;;;0.93;0.93;;;;;;;33.58;53.85;100021.63;5070275;28;20228;-72
2023/06/27 05:17:55;;;;;;;1.10;1.10;;;;;;;33.43;53.96;100002.19;5070571;28;20209;-72
2023/06/27 05:20:22;;;;;;;1.00;1.00;;;;;;;33.52;53.61;100019.44;5069800;28;20199;-72
2023/06/27 05:22:50;;;;;;;1.10;1.10;;;;;;;33.64;54.68;100022.00;5070492;28;20229;-72
2023/06/27 05:25:17;;;;;;;1.05;1.05;;;;;;;33.35;55.25;100024.34;5034605;28;20202;-72
2023/06/27 05:27:44;;;;;;;1.00;1.00;;;;;;;33.40;54.40;100032.88;5076284;28;20291;-72
2023/06/27 05:30:11;;;;;;;1.30;1.30;;;;;;;33.20;53.62;100036.31;5069223;28;20213;-71
2023/06/27 05:32:38;;;;;;;1.73;1.73;;;;;;;33.55;54.01;100028.13;5063116;28;20209;-71
2023/06/27 05:35:06;;;;;;;2.28;1.85;;;;;;;33.94;52.14;100033.94;5065762;28;20328;-72
2023/06/27 05:37:32;;;;;;;1.05;1.05;;;;;;;33.73;51.80;100012.34;5035181;28;20194;-72
2023/06/27 05:40:01;;;;;;;1.00;1.00;;;;;;;34.47;50.64;100016.00;5070074;28;20212;-72
2023/06/27 05:42:27;;;;;;;0.85;0.85;;;;;;;34.24;49.62;99996.44;5069909;28;20557;-72
2023/06/27 05:44:54;;;;;;;0.90;0.90;;;;;;;33.99;49.83;99991.34;5069496;28;20268;-72
2023/06/27 05:47:21;;;;;;;0.80;0.80;;;;;;;34.40;49.96;100020.19;5069661;28;20198;-73
2023/06/27 05:49:48;;;;;;;1.42;1.42;;;;;;;33.83;49.82;100003.38;5061596;28;20301;-72
2023/06/27 05:52:15;;;;;;;1.20;1.20;;;;;;;33.46;51.02;100023.50;5064044;28;20628;-73
2023/06/27 05:54:42;;;;;;;1.10;1.10;;;;;;;33.22;52.58;100014.69;5059955;28;20233;-72
2023/06/27 05:57:10;;;;;;;1.13;1.13;;;;;;;33.24;53.98;100010.06;5069959;28;20297;-73
2023/06/27 05:59:37;;;;;;;1.10;1.10;;;;;;;33.13;53.97;100021.66;5070142;28;20210;-72
2023/06/27 06:02:05;;;;;;;1.35;1.35;;;;;;;33.42;53.81;100019.34;5065463;28;20198;-72
2023/06/27 06:04:31;;;;;;;1.13;1.13;;;;;;;32.97;54.52;100015.75;5034791;28;20255;-73
2023/06/27 06:06:59;;;;;;;1.05;1.05;;;;;;;31.88;58.86;100014.25;5069744;28;20213;-72
2023/06/27 06:09:26;;;;;;;1.17;1.17;;;;;;;31.61;59.65;100016.25;5069612;28;20208;-72
2023/06/27 06:11:53;;;;;;;1.10;1.10;;;;;;;31.53;61.40;100013.28;5066560;28;20573;-73
2023/06/27 06:14:21;;;;;;;1.50;1.40;;;;;;;31.50;61.82;100009.94;5069935;28;20267;-72
2023/06/27 06:16:48;;;;;;;1.17;1.17;;;;;;;30.98;64.61;100011.81;5034208;28;20272;-72
2023/06/27 06:19:15;;;;;;;1.00;1.00;;;;;;;31.43;62.52;100007.69;5034738;28;20206;-72
2023/06/27 06:21:42;;;;;;;0.68;0.68;;;;;;;31.27;62.38;100012.44;5069284;28;20198;-72
2023/06/27 06:24:09;;;;;;;1.27;1.27;;;;;;;31.03;65.90;100002.63;5070262;28;20213;-72
2023/06/27 06:26:36;;;;;;;1.00;1.00;;;;;;;30.78;67.14;100015.03;5069972;28;20198;-72
2023/06/27 06:29:03;;;;;;;1.10;1.10;;;;;;;30.26;71.24;99990.06;5070106;28;20653;-72
2023/06/27 06:31:31;;;;;;;1.20;1.20;;;;;;;30.53;72.11;100006.09;5058477;28;20725;-72
2023/06/27 06:33:58;;;;;;;1.33;1.33;;;;;;;30.30;74.67;99991.56;5030873;28;20208;-72
2023/06/27 06:36:25;;;;;;;1.40;1.40;;;;;;;30.61;75.77;100009.94;5059596;28;20234;-73
2023/06/27 06:38:51;;;;;;;1.00;1.00;;;;;;;30.33;77.20;100007.41;5055612;28;20203;-73
2023/06/27 06:41:18;;;;;;;1.20;1.20;;;;;;;30.23;78.59;99992.94;5069601;28;20251;-72
2023/06/27 06:43:45;;;;;;;1.35;1.35;;;;;;;29.82;83.29;99996.50;5069336;28;20680;-72
2023/06/27 06:46:12;;;;;;;1.33;1.33;;;;;;;29.08;88.57;99971.03;5014587;28;20199;-72
2023/06/27 06:48:40;;;;;;;1.20;1.20;;;;;;;29.10;97.59;99995.88;5053983;28;20203;-72
2023/06/27 06:51:08;;;;;;;1.10;1.10;;;;;;;28.75;96.91;99993.56;5068629;28;20202;-73
2023/06/27 06:53:35;;;;;;;1.15;1.15;;;;;;;28.70;95.44;99995.66;5069484;28;20639;-72
2023/06/27 06:56:02;;;;;;;1.17;1.17;;;;;;;28.69;95.85;99983.25;5070001;28;20218;-72
2023/06/27 06:58:29;;;;;;;1.25;1.25;;;;;;;28.83;98.09;99987.75;5069948;28;20195;-72
2023/06/27 07:00:55;;;;;;;1.33;1.33;;;;;;;28.69;95.27;99999.25;5069918;28;20199;-72
2023/06/27 07:03:22;;;;;;;1.30;1.30;;;;;;;28.77;96.88;99994.31;5043498;28;20317;-72
2023/06/27 07:05:50;;;;;;;1.50;1.40;;;;;;;28.83;95.42;99993.94;5015054;28;20670;-73
2023/06/27 07:08:17;;;;;;;1.70;1.60;;;;;;;28.50;96.26;99993.31;5056052;28;20195;-73
2023/06/27 07:10:44;;;;;;;1.20;1.20;;;;;;;28.36;97.38;99993.28;5069861;28;20195;-73
2023/06/27 07:13:11;;;;;;;1.58;1.48;;;;;;;28.20;100.00;99995.13;5051149;28;20294;-73
2023/06/27 07:15:37;;;;;;;3.08;1.73;;;;;;;28.37;100.00;99990.50;5060352;28;20234;-73
2023/06/27 07:18:04;;;;;;;1.45;1.45;;;;;;;28.42;99.98;99998.22;5069765;28;20214;-73
2023/06/27 07:20:31;;;;;;;1.30;1.30;;;;;;;28.34;98.75;99987.16;5034601;28;20214;-72
2023/06/27 07:22:59;;;;;;;1.20;1.20;;;;;;;28.43;100.00;99984.78;5055719;28;20210;-72
2023/06/27 07:25:28;;;;;;;1.40;1.40;;;;;;;28.52;99.89;99986.91;5069687;28;20195;-73
2023/06/27 07:27:54;;;;;;;2.15;1.98;;;;;;;28.30;100.00;99973.13;5058417;28;20207;-72
2023/06/27 07:30:21;;;;;;;1.20;1.20;;;;;;;28.31;95.14;99969.53;5072887;28;20243;-73
2023/06/27 07:32:48;;;;;;;1.27;1.27;;;;;;;28.62;92.06;99986.34;5037991;28;20198;-73
2023/06/27 07:35:15;;;;;;;1.00;1.00;;;;;;;28.77;94.60;99972.09;5073134;28;20249;-73
2023/06/27 07:37:41;;;;;;;1.20;1.20;;;;;;;29.00;91.84;99990.25;5054806;28;20253;-73
2023/06/27 07:40:10;;;;;;;1.00;1.00;;;;;;;29.13;92.93;99984.97;5073186;28;20253;-73
2023/06/27 07:42:37;;;;;;;1.20;1.20;;;;;;;29.10;98.16;99987.84;5054207;28;20206;-73
2023/06/27 07:45:04;;;;;;;0.98;0.98;;;;;;;29.09;94.39;99988.78;5073016;28;20225;-73
2023/06/27 07:47:31;;;;;;;1.02;1.02;;;;;;;29.08;90.27;99987.94;5071170;28;20264;-73
2023/06/27 07:49:58;;;;;;;1.20;1.20;;;;;;;29.15;93.57;99988.41;5073096;28;20213;-73
2023/06/27 07:52:24;;;;;;;1.20;1.20;;;;;;;29.21;93.77;99985.38;5037861;28;20214;-73
2023/06/27 07:54:51;;;;;;;0.90;0.90;;;;;;;28.82;93.09;99986.91;5030518;28;20208;-75
2023/06/27 07:57:19;;;;;;;1.20;1.20;;;;;;;28.87;91.09;99984.78;5066741;28;20223;-75
2023/06/27 07:59:46;;;;;;;1.65;1.45;;;;;;;28.85;90.19;99985.84;5059103;28;20206;-76
2023/06/27 08:02:13;;;;;;;1.33;1.33;;;;;;;29.20;88.71;99984.50;5073098;28;20209;-75
2023/06/27 08:04:39;;;;;;;1.25;1.25;;;;;;;29.54;85.07;99980.56;5072793;28;20747;-76
2023/06/27 08:07:06;;;;;;;1.10;1.10;;;;;;;29.49;83.63;99977.34;5072795;28;20203;-75
2023/06/27 08:09:33;;;;;;;1.20;1.20;;;;;;;29.22;83.62;99942.50;5072897;28;20281;-75
2023/06/27 08:12:00;;;;;;;1.58;1.48;;;;;;;29.38;84.72;99971.81;5072889;28;20198;-75
2023/06/27 08:14:28;;;;;;;1.33;1.33;;;;;;;29.25;83.51;99978.88;5073111;28;20595;-75
2023/06/27 08:16:55;;;;;;;1.00;1.00;;;;;;;29.05;84.35;99972.97;5073114;28;20230;-75
2023/06/27 08:19:22;;;;;;;1.52;1.52;;;;;;;29.48;85.49;99986.31;5072722;28;20281;-75
2023/06/27 08:21:48;;;;;;;1.10;1.10;;;;;;;29.15;77.42;99983.06;5072827;28;20202;-75
2023/06/27 08:24:15;;;;;;;0.93;0.93;;;;;;;29.39;78.82;99977.09;5072680;28;20717;-75
2023/06/27 08:26:42;;;;;;;1.25;1.25;;;;;;;29.23;82.98;99960.28;5072564;28;20195;-75
2023/06/27 08:29:09;;;;;;;1.10;1.10;;;;;;;29.37;77.81;99978.97;5072554;28;20199;-75
2023/06/27 08:31:37;;;;;;;1.10;1.10;;;;;;;29.65;76.59;99982.53;5072811;28;20241;-75
2023/06/27 08:34:04;;;;;;;1.10;1.10;;;;;;;29.62;74.15;99972.91;5072631;28;20201;-75
2023/06/27 08:36:30;;;;;;;1.20;1.20;;;;;;;29.46;75.52;99966.84;5072480;28;20234;-76
2023/06/27 08:38:57;;;;;;;1.50;1.40;;;;;;;29.76;71.52;99974.66;5071076;28;20289;-73
2023/06/27 08:41:24;;;;;;;1.38;1.35;;;;;;;29.78;65.45;99987.00;5072188;28;20199;-74
2023/06/27 08:43:51;;;;;;;1.50;1.40;;;;;;;29.63;67.39;99982.66;5059778;28;20210;-76
2023/06/27 08:46:20;;;;;;;1.45;1.35;;;;;;;29.93;64.87;99980.66;5067172;28;20714;-76
2023/06/27 08:48:50;;;;;;;1.45;1.35;;;;;;;29.91;63.13;99984.38;5057690;28;20284;-74
2023/06/27 08:51:19;;;;;;;1.13;1.13;;;;;;;29.91;64.04;99985.25;5068004;28;20661;-76
2023/06/27 08:53:50;;;;;;;1.08;1.08;;;;;;;29.71;71.01;99976.81;5026793;28;20210;-74
2023/06/27 08:56:19;;;;;;;1.08;1.08;;;;;;;29.76;64.09;99948.78;5071507;28;20226;-74
2023/06/27 08:58:49;;;;;;;1.30;1.30;;;;;;;29.76;68.51;99974.66;5071779;28;20284;-74
2023/06/27 09:01:16;;;;;;;1.20;1.20;;;;;;;29.68;64.94;99969.81;5057213;28;20705;-74
2023/06/27 09:03:43;;;;;;;1.20;1.20;;;;;;;29.62;61.46;99934.63;5071519;28;20700;-73
2023/06/27 09:06:13;;;;;;;1.75;1.65;;;;;;;30.00;63.56;99963.22;5071270;28;20697;-73
2023/06/27 09:08:40;;;;;;;1.55;1.45;;;;;;;29.75;63.51;99947.06;5071453;28;20214;-73
2023/06/27 09:11:09;;;;;;;1.10;1.10;;;;;;;30.17;72.05;99962.13;5036115;28;20199;-73
2023/06/27 09:13:37;;;;;;;1.10;1.10;;;;;;;30.02;64.43;99966.69;5071426;28;20219;-73
2023/06/27 09:16:04;;;;;;;1.23;1.23;;;;;;;30.08;64.75;99953.84;5071350;28;20305;-73
2023/06/27 09:18:31;;;;;;;1.27;1.27;;;;;;;30.22;65.85;99964.47;5071169;28;20199;-74
2023/06/27 09:20:58;;;;;;;0.98;0.98;;;;;;;30.29;63.88;99963.94;5035923;28;20199;-73
2023/06/27 09:23:28;;;;;;;1.20;1.20;;;;;;;30.44;71.86;99970.09;5071211;28;20670;-73
2023/06/27 09:26:06;;;;;;;1.10;1.10;;;;;;;30.82;67.24;99967.47;5071432;28;20222;-73
2023/06/27 09:28:44;;;;;;;1.60;1.50;;;;;;;30.94;64.08;99967.44;5071102;28;20617;-73
2023/06/27 09:31:12;;;;;;;1.10;1.10;;;;;;;30.90;61.39;99965.06;5071161;28;20304;-73
2023/06/27 09:33:39;;;;;;;1.20;1.20;;;;;;;30.80;61.79;99969.38;5070922;28;20276;-73
2023/06/27 09:36:06;;;;;;;1.10;1.10;;;;;;;30.66;60.67;99956.97;5070855;28;20288;-73
2023/06/27 09:38:34;;;;;;;1.38;1.38;;;;;;;30.90;65.89;99959.72;5070943;28;20695;-73
2023/06/27 09:41:05;;;;;;;1.23;1.23;;;;;;;31.02;61.21;99964.25;5055375;28;20300;-73
2023/06/27 09:43:35;;;;;;;1.40;1.30;;;;;;;30.79;64.60;99956.94;5070732;28;20201;-73
2023/06/27 09:46:04;;;;;;;1.20;1.20;;;;;;;30.96;63.59;99960.13;5056688;28;20213;-72
2023/06/27 09:48:31;;;;;;;1.25;1.25;;;;;;;31.23;61.51;99961.84;5068633;28;20203;-73
2023/06/27 09:51:02;;;;;;;1.42;1.42;;;;;;;31.38;61.67;99964.28;5034937;28;20206;-73
2023/06/27 09:53:30;;;;;;;1.10;1.10;;;;;;;30.90;62.04;99959.72;5070780;28;20217;-77
2023/06/27 09:55:59;;;;;;;1.60;1.50;;;;;;;30.81;61.65;99963.94;5070823;28;20250;-75
2023/06/27 09:58:27;;;;;;;1.17;1.17;;;;;;;30.48;60.87;99936.81;5052004;28;20237;-75
2023/06/27 10:00:55;;;;;;;1.17;1.17;;;;;;;30.82;70.37;99965.63;5071283;28;20273;-74
2023/06/27 10:03:23;;;;;;;1.45;1.40;;;;;;;30.93;63.47;99964.84;5070833;28;20256;-74
2023/06/27 10:05:50;;;;;;;1.27;1.27;;;;;;;30.93;67.55;99967.53;5035417;28;20278;-75
2023/06/27 10:08:17;;;;;;;1.00;1.00;;;;;;;30.74;60.60;99961.78;5070981;28;20198;-76
2023/06/27 10:10:43;;;;;;;1.60;1.50;;;;;;;30.80;63.75;99959.53;5054025;28;20199;-75
2023/06/27 10:13:12;;;;;;;1.25;1.25;;;;;;;31.16;62.17;99955.22;5070235;28;20203;-74
2023/06/27 10:15:39;;;;;;;1.20;1.20;;;;;;;30.68;56.87;99919.38;5070543;28;20198;-75
2023/06/27 10:18:07;;;;;;;1.20;1.20;;;;;;;30.38;61.25;99898.25;5070309;28;20226;-74
2023/06/27 10:20:34;;;;;;;1.58;1.48;;;;;;;30.93;59.24;99959.50;5070563;28;20199;-74
2023/06/27 10:23:02;;;;;;;1.20;1.20;;;;;;;31.01;60.52;99957.19;5070509;28;20202;-73
2023/06/27 10:25:29;;;;;;;1.20;1.20;;;;;;;31.20;60.15;99935.28;5070292;28;20199;-76
2023/06/27 10:28:05;;;;;;;1.00;1.00;;;;;;;31.27;66.52;99949.94;5070667;28;20536;-75
2023/06/27 10:30:38;;;;;;;1.23;1.23;;;;;;;31.68;69.32;99931.69;5057288;28;20241;-74
2023/06/27 10:33:10;;;;;;;0.90;0.90;;;;;;;32.17;65.45;99953.06;5070309;28;20701;-74
2023/06/27 10:35:40;;;;;;;1.10;1.10;;;;;;;31.88;62.54;99938.28;5051853;28;20630;-73
2023/06/27 10:38:08;;;;;;;1.40;1.40;;;;;;;31.71;62.57;99936.00;5070047;28;20305;-73
2023/06/27 10:41:23;;;;;;;1.20;1.20;;;;;;;31.81;60.54;99940.56;5069999;28;20587;-74
2023/06/27 10:43:52;;;;;;;1.15;1.15;;;;;;;31.30;63.76;99941.69;5027771;28;20221;-73
2023/06/27 10:46:21;;;;;;;1.67;1.58;;;;;;;31.46;61.24;99924.34;5027988;28;20671;-75
2023/06/27 10:48:50;;;;;;;1.42;1.33;;;;;;;31.89;60.47;99940.00;5011343;28;20204;-74
2023/06/27 10:51:18;;;;;;;1.35;1.33;;;;;;;31.46;60.32;99918.16;5022141;28;20212;-74
2023/06/27 10:54:16;;;;;;;1.52;1.42;;;;;;;31.34;64.71;99930.63;5020243;28;20664;-74
2023/06/27 10:56:44;;;;;;;1.80;1.70;;;;;;;31.31;64.24;99921.97;5027868;28;20250;-76
2023/06/27 10:59:12;;;;;;;1.88;1.70;;;;;;;31.40;62.63;99898.00;5027903;28;20826;-76
2023/06/27 11:01:44;;;;;;;1.30;1.25;;;;;;;31.94;62.78;99927.06;5028535;28;20208;-75
2023/06/27 11:04:18;;;;;;;1.17;1.17;;;;;;;32.25;58.96;99928.31;5031860;28;20678;-73
2023/06/27 11:06:46;;;;;;;1.38;1.27;;;;;;;31.98;55.71;99900.88;5031960;28;20204;-70
2023/06/27 11:09:14;;;;;;;1.55;1.45;;;;;;;32.10;54.46;99916.06;5031474;28;20306;-70
2023/06/27 11:11:41;;;;;;;1.30;1.23;;;;;;;32.17;52.60;99922.69;5031811;28;20196;-70
2023/06/27 11:14:09;;;;;;;1.65;1.55;;;;;;;31.92;53.38;99913.78;5031784;28;20203;-71
2023/06/27 11:16:36;;;;;;;1.20;1.20;;;;;;;32.20;52.15;99915.25;5031862;28;20223;-72
2023/06/27 11:19:05;;;;;;;1.20;1.20;;;;;;;32.53;50.65;99918.97;5031799;28;20303;-73
2023/06/27 11:21:32;;;;;;;1.23;1.23;;;;;;;32.37;54.47;99914.78;5072382;28;20199;-72
2023/06/27 11:23:59;;;;;;;1.30;1.30;;;;;;;32.42;50.90;99895.66;5073624;28;20198;-72
2023/06/27 11:26:27;;;;;;;1.40;1.30;;;;;;;32.39;51.41;99907.47;5038554;28;20203;-72
2023/06/27 11:28:54;;;;;;;1.10;1.10;;;;;;;32.42;52.16;99906.38;5073562;28;20198;-72
2023/06/27 11:31:21;;;;;;;1.15;1.15;;;;;;;32.41;53.25;99896.63;5073870;28;20231;-72